This is the latest recevied weather packets stored in our database for station/object DL8BZ-10. If no packets are shown the sender has not sent any weather packets the latest 10 day(s).
| Time | Temp. | Humidity | Pressure | Rain* | Wind** | Luminosity | Snow |
|---|---|---|---|---|---|---|---|
| 1777208374 | 25° C | 24% | 1024.7 hPa | - | - | - | - |
| 1777205074 | 23.89° C | 25% | 1025 hPa | - | - | - | - |
| 1777201773 | 23.89° C | 25% | 1025.3 hPa | - | - | - | - |
| 1777198473 | 26.67° C | 21% | 1025.4 hPa | - | - | - | - |
| 1777195153 | 22.22° C | 27% | 1025.7 hPa | - | - | - | - |
| 1777191851 | 21.67° C | 27% | 1025.8 hPa | - | - | - | - |
| 1777188547 | 18.33° C | 33% | 1025.7 hPa | - | - | - | - |
| 1777185246 | 16.67° C | 35% | 1025.2 hPa | - | - | - | - |
| 1777181926 | 16.11° C | 36% | 1024.9 hPa | - | - | - | - |
| 1777178626 | 15.56° C | 37% | 1024.4 hPa | - | - | - | - |
| 1777175324 | 16.11° C | 37% | 1023.7 hPa | - | - | - | - |
| 1777172024 | 16.11° C | 37% | 1023.4 hPa | - | - | - | - |
| 1777168724 | 16.67° C | 37% | 1022.7 hPa | - | - | - | - |
| 1777165403 | 16.67° C | 37% | 1022.5 hPa | - | - | - | - |
| 1777162084 | 17.22° C | 36% | 1021.9 hPa | - | - | - | - |
| 1777158764 | 17.22° C | 36% | 1021.6 hPa | - | - | - | - |
| 1777155444 | 17.78° C | 35% | 1021.2 hPa | - | - | - | - |
| 1777152124 | 18.33° C | 34% | 1020.6 hPa | - | - | - | - |
| 1777148824 | 18.89° C | 33% | 1020 hPa | - | - | - | - |
| 1777145523 | 19.44° C | 32% | 1019 hPa | - | - | - | - |
| 1777142222 | 20.56° C | 30% | 1018.2 hPa | - | - | - | - |
| 1777138921 | 21.67° C | 28% | 1017.7 hPa | - | - | - | - |
| 1777135621 | 22.22° C | 26% | 1017.4 hPa | - | - | - | - |
| 1777132300 | 24.44° C | 23% | 1017.3 hPa | - | - | - | - |
| 1777128981 | 24.44° C | 23% | 1017.4 hPa | - | - | - | - |
* Rain since midnight (hover to see other rain measurements)
** Current wind speed in m/s (hover to see current wind gust speed)